• Join FlightAware (Why Join?)
  • Login
  • US Flag 
12:23AM EDT


 

Airport Tracker/Info


-or-


 

Live Flight TrackerFlight Track Log ✈ UAL109 ✈ 29-Aug-2013 ✈ EGPH / EDI - KEWR

Flight Track Log - Related Links

Times and Time Zones

All times are in EDT time to prevent confusion due to time zone crossing. See the UAL109 flight status page for this flight to view local times or setup timezone preferences in your user account.

Time Position Orientation Groundspeed Altitude Reporting Facility
EDT Latitude Longitude Course Direction KTS MPH feet Rate Location/Type
07:06AM 55.9540 -3.3620 270° West 82 94  Level FlightAware
07:07AM 55.9480 -3.3810 241° Southwest 164 189 100 1,920 Climbing FlightAware
07:07AM 55.9410 -3.4020 239° Southwest 152 175 1,300 3,180 Climbing FlightAware
07:07AM 55.9320 -3.4240 234° Southwest 155 178 2,200 2,220 Climbing FlightAware
07:08AM 55.9250 -3.4450 239° Southwest 161 185 2,800 2,160 Climbing FlightAware
07:08AM 55.9190 -3.4640 241° Southwest 161 185 3,500 1,800 Climbing FlightAware
07:08AM 55.9140 -3.4800 241° Southwest 174 200 3,700 1,140 Climbing FlightAware
07:09AM 55.9050 -3.5120 243° Southwest 204 235 4,200 1,500 Climbing FlightAware
07:09AM 55.9030 -3.5280 257° West 214 246 4,500 1,980 Climbing FlightAware
07:09AM 55.9010 -3.5630 264° West 229 264 5,200 1,800 Climbing FlightAware
07:09AM 55.8970 -3.6050 260° West 249 287 5,700 2,220 Climbing FlightAware
07:10AM 55.8930 -3.6440 260° West 250 288 6,700 2,760 Climbing FlightAware
07:10AM 55.8880 -3.6940 260° West 256 295 7,800 2,640 Climbing FlightAware
07:10AM 55.8830 -3.7350 258° West 260 299 8,700 2,460 Climbing FlightAware
07:11AM 55.8800 -3.7710 262° West 264 304 9,400 2,340 Climbing FlightAware
07:11AM 55.8740 -3.8240 262° West 275 316 10,300 1,920 Climbing FlightAware
07:11AM 55.8689 -3.8625 262° West 312 359 10,600 1,200 Climbing FlightAware UK
07:12AM 55.8600 -3.9373 262° West 344 396 11,200 1,200 Climbing FlightAware UK
07:12AM 55.8600 -3.9470 262° West 329 379 11,300 1,200 Climbing FlightAware
07:13AM 55.8480 -4.0590 259° West 365 420 12,100 1,680 Climbing FlightAware
07:13AM 55.8360 -4.1630 258° West 373 429 13,400 2,280 Climbing FlightAware
07:14AM 55.8240 -4.2690 259° West 379 436 14,800 2,280 Climbing FlightAware
07:14AM 55.8110 -4.3810 258° West 387 445 16,100 2,100 Climbing FlightAware
07:15AM 55.7980 -4.4910 258° West 395 455 17,300 2,040 Climbing FlightAware
07:16AM 55.7850 -4.6010 258° West 399 459 18,500 1,920 Climbing FlightAware
07:16AM 55.7710 -4.7130 258° West 406 467 19,600 1,740 Climbing FlightAware
07:17AM 55.7540 -4.8530 258° West 414 476 20,800 1,620 Climbing FlightAware
07:17AM 55.7410 -4.9640 258° West 421 484 21,700 1,560 Climbing FlightAware
07:18AM 55.7260 -5.0900 258° West 430 495 22,600 1,500 Climbing FlightAware
07:19AM 55.7120 -5.1970 258° West 433 498 23,400 1,380 Climbing FlightAware
07:19AM 55.7077 -5.2067 258° West 458 527 23,400 1,680 Level FlightAware UK
07:19AM 55.6946 -5.3106 258° West 468 539 24,300 1,800 Climbing FlightAware UK
07:19AM 55.6970 -5.3170 258° West 437 503 24,400 1,500 Climbing FlightAware
07:20AM 55.6810 -5.4450 258° West 442 509 25,300 1,320 Climbing FlightAware
07:20AM 55.6660 -5.5660 258° West 449 517 26,000 1,260 Climbing FlightAware
07:21AM 55.6490 -5.6940 257° West 452 520 26,800 1,260 Climbing FlightAware
07:21AM 55.6340 -5.8140 258° West 455 524 27,500 1,440 Climbing FlightAware
07:22AM 55.6115 -5.9517 258° West 484 557 28,500 1,860 Climbing FlightAware UK
07:22AM 55.6160 -5.9540 258° West 451 519 28,600 1,740 Climbing FlightAware
07:23AM 55.5980 -6.0850 256° West 448 516 29,600 1,740 Climbing FlightAware
07:23AM 55.5820 -6.2090 257° West 441 507 30,700 1,620 Climbing FlightAware
07:24AM 55.5650 -6.3390 257° West 439 505 31,600 1,320 Climbing FlightAware
07:24AM 55.5510 -6.4410 256° West 441 507 32,200 1,260 Climbing FlightAware
07:25AM 55.5330 -6.5690 256° West 439 505 33,000 1,260 Climbing FlightAware
07:26AM 55.5160 -6.6990 257° West 437 503 33,800 660 Climbing FlightAware
07:26AM 55.5020 -6.8000 256° West 440 506 33,800  Level FlightAware
07:27AM 55.4830 -6.9310 256° West 441 507 33,800  Level FlightAware
07:27AM 55.4775 -6.9318 256° West 474 545 33,800  Level FlightAware UK
07:27AM 55.4630 -7.0356 256° West 470 541 33,800  Level FlightAware UK
07:27AM 55.4640 -7.0710 256° West 440 506 33,800  Level FlightAware
07:28AM 55.4500 -7.1720 256° West 439 505 33,800  Level FlightAware
07:28AM 55.4330 -7.2870 255° West 436 502 33,800  Level FlightAware
07:29AM 55.4120 -7.4300 256° West 435 501 33,800  Level FlightAware
07:30AM 55.3856 -7.5700 256° West 466 536 33,800  Level FlightAware UK
07:30AM 55.3950 -7.5460 256° West 434 499 33,800  Level FlightAware
07:30AM 55.3730 -7.6970 256° West 434 499 33,800  Level FlightAware
07:31AM 55.3560 -7.8180 256° West 434 499 33,800  Level FlightAware
07:32AM 55.3370 -7.9430 255° West 436 502 33,800  Level FlightAware
07:32AM 55.3090 -8.0810 255° West 470 541 33,800  Level FlightAware UK
07:32AM 55.3160 -8.0830 255° West 436 502 33,800  Level FlightAware
07:33AM 55.2970 -8.2060 255° West 436 502 33,800  Level FlightAware
07:33AM 55.2790 -8.3240 255° West 436 502 33,800  Level FlightAware
07:34AM 55.2610 -8.4440 255° West 437 503 33,800  Level FlightAware
07:35AM 55.2420 -8.5650 255° West 436 502 33,800  Level FlightAware
07:35AM 55.2260 -8.6720 255° West 436 502 33,800  Level FlightAware
07:36AM 55.2080 -8.7810 254° West 436 502 33,800  Level FlightAware
07:36AM 55.1792 -8.9145 254° West 470 541 33,800  Level FlightAware UK
07:37AM 55.1830 -8.9430 254° West 437 503 33,800  Level FlightAware
07:37AM 55.1640 -9.0570 254° West 437 503 33,800  Level FlightAware
07:38AM 55.1460 -9.1730 255° West 435 501 33,800  Level FlightAware
07:38AM 55.1280 -9.2820 254° West 435 501 33,800  Level FlightAware
07:39AM 55.1090 -9.4000 254° West 436 502 33,800  Level FlightAware
07:39AM 55.0870 -9.5330 254° West 436 502 33,800  Level FlightAware
07:40AM 55.0670 -9.6540 254° West 437 503 33,800  Level FlightAware
07:41AM 55.0490 -9.7630 254° West 436 502 33,800  Level FlightAware
07:41AM 55.0190 -9.9420 254° West 435 501 33,800  Level FlightAware
07:42AM 55.0090 -10.0340 259° West 435 501 33,800  Level FlightAware
07:43AM 55.0090 -10.1790 270° West 433 498 33,800  Level FlightAware
07:43AM 55.0110 -10.3000 272° West 433 498 33,800  Level FlightAware
07:44AM 55.0130 -10.4220 272° West 432 497 33,800  Level FlightAware
07:44AM 55.0150 -10.5420 272° West 429 494 33,800  Level FlightAware
07:45AM 55.0170 -10.6620 272° West 428 493 33,800  Level FlightAware
07:46AM 55.0190 -10.8100 271° West 427 491 33,800  Level FlightAware
07:46AM 55.0210 -10.9210 272° West 426 490 33,800  Level FlightAware
07:47AM 55.0220 -11.0570 271° West 426 490 33,800  Level FlightAware
07:47AM 55.0240 -11.1780 272° West 426 490 33,800  Level FlightAware
07:48AM 55.0250 -11.2770 271° West 426 490 33,800  Level FlightAware
07:49AM 55.0260 -11.4170 271° West 426 490 33,800 60 Level FlightAware
07:49AM 55.0270 -11.5370 271° West 426 490 33,900 180 Climbing FlightAware
07:50AM 55.0280 -11.6390 271° West 425 489 34,000 60 Climbing FlightAware
07:50AM 55.0290 -11.7570 271° West 423 487 34,000  Level FlightAware
07:51AM 55.0290 -11.8680 270° West 420 483 34,000  Level FlightAware
07:52AM 55.0300 -12.0480 271° West 419 482 34,000  Level FlightAware
07:52AM 55.0310 -12.1950 271° West 418 481 34,000  Level FlightAware
07:53AM 55.0310 -12.2870 270° West 418 481 34,000  Level FlightAware
07:54AM 55.0310 -12.4330 270° West 417 480 34,000  Level FlightAware
07:54AM 55.0310 -12.5460 270° West 417 480 34,000  Level FlightAware
07:55AM 55.0310 -12.6660 270° West 417 480 34,000  Level FlightAware
07:55AM 55.0310 -12.7810 270° West 417 480 34,000  Level FlightAware
07:56AM 55.0300 -12.8990 269° West 418 481 34,000  Level FlightAware
07:57AM 55.0300 -13.0150 270° West 418 481 34,000  Level FlightAware
07:57AM 55.0290 -13.1080 269° West 419 482 34,000  Level FlightAware
07:58AM 55.0280 -13.2490 269° West 419 482 34,000  Level FlightAware
07:58AM 55.0270 -13.3680 269° West 419 482 34,000  Level FlightAware
07:59AM 55.0260 -13.5480 270° West 418 481 34,000  Level FlightAware
08:00AM 55.0250 -13.6550 269° West 418 481 34,000  Level FlightAware
08:00AM 55.0240 -13.7970 269° West 656 755 34,000  Level FlightAware
08:03AM 55.0465 -14.1968 276° West  Level Estimated
08:04AM 55.0569 -14.3904 275° West  Level Estimated
08:05AM 55.0670 -14.5841 275° West  Level Estimated
08:06AM 55.0768 -14.7779 275° West  Level Estimated
08:07AM 55.0863 -14.9718 275° West  Level Estimated
08:08AM 55.0955 -15.1658 275° West  Level Estimated
08:09AM 55.1044 -15.3598 275° West  Level Estimated
08:10AM 55.1129 -15.5540 274° West  Level Estimated
08:11AM 55.1212 -15.7482 274° West  Level Estimated
08:12AM 55.1291 -15.9425 274° West  Level Estimated
08:13AM 55.1368 -16.1369 274° West  Level Estimated
08:14AM 55.1441 -16.3314 274° West  Level Estimated
08:15AM 55.1511 -16.5259 274° West  Level Estimated
08:16AM 55.1578 -16.7206 274° West  Level Estimated
08:17AM 55.1646 -16.9270 273° West  Level Estimated
08:18AM 55.1710 -17.1335 273° West  Level Estimated
08:19AM 55.1771 -17.3400 273° West  Level Estimated
08:20AM 55.1828 -17.5466 273° West  Level Estimated
08:21AM 55.1882 -17.7533 273° West  Level Estimated
08:22AM 55.1932 -17.9600 273° West  Level Estimated
08:23AM 55.1979 -18.1668 272° West  Level Estimated
08:24AM 55.2023 -18.3736 272° West  Level Estimated
08:25AM 55.2062 -18.5805 272° West  Level Estimated
08:26AM 55.2099 -18.7874 272° West  Level Estimated
08:27AM 55.2131 -18.9944 272° West  Level Estimated
08:28AM 55.2161 -19.2013 272° West  Level Estimated
08:29AM 55.2187 -19.4084 271° West  Level Estimated
08:30AM 55.2209 -19.6154 271° West  Level Estimated
08:31AM 55.2228 -19.8224 271° West  Level Estimated
08:32AM 55.2243 -20.0295 271° West  Level Estimated
08:33AM 55.2255 -20.2366 271° West  Level Estimated
08:34AM 55.2263 -20.4437 270° West  Level Estimated
08:35AM 55.2268 -20.6508 270° West  Level Estimated
08:36AM 55.2269 -20.8579 270° West  Level Estimated
08:37AM 55.2267 -21.0650 270° West  Level Estimated
08:38AM 55.2261 -21.2721 270° West  Level Estimated
08:39AM 55.2252 -21.4792 270° West  Level Estimated
08:40AM 55.2239 -21.6863 269° West  Level Estimated
08:41AM 55.2223 -21.8933 269° West  Level Estimated
08:42AM 55.2203 -22.1004 269° West  Level Estimated
08:43AM 55.2179 -22.3074 269° West  Level Estimated
08:43AM 56.0000 -20.0000 294° West 417 480 34,000  Level ETMS Enhanced Traffic Management System
08:44AM 55.2153 -22.5144 269° West  Level Estimated
08:45AM 55.2122 -22.7213 269° West  Level Estimated
08:46AM 55.2089 -22.9283 268° West  Level Estimated
08:47AM 55.2051 -23.1352 268° West  Level Estimated
08:48AM 55.2010 -23.3420 268° West  Level Estimated
08:49AM 56.7685 -23.2777 292° West 417 480 34,000  Level FlightAware Transoceanic
08:50AM 56.8110 -23.4746 291° West 417 480 34,000  Level FlightAware Transoceanic
08:51AM 56.8532 -23.6720 291° West 417 480 34,000  Level FlightAware Transoceanic
08:52AM 56.8951 -23.8698 291° West 417 480 34,000  Level FlightAware Transoceanic
08:53AM 56.9366 -24.0680 291° West 417 480 34,000  Level FlightAware Transoceanic
08:54AM 56.9778 -24.2666 291° West 417 480 34,000  Level FlightAware Transoceanic
08:55AM 57.0187 -24.4657 291° West 417 480 34,000  Level FlightAware Transoceanic
08:56AM 57.0593 -24.6653 290° West 417 480 34,000  Level FlightAware Transoceanic
08:57AM 57.0996 -24.8653 290° West 417 480 34,000  Level FlightAware Transoceanic
08:58AM 57.1396 -25.0657 290° West 417 480 34,000  Level FlightAware Transoceanic
08:59AM 57.1792 -25.2665 290° West 417 480 34,000  Level FlightAware Transoceanic
09:00AM 57.2186 -25.4678 290° West 417 480 34,000  Level FlightAware Transoceanic
09:01AM 57.2575 -25.6695 290° West 417 480 34,000  Level FlightAware Transoceanic
09:02AM 57.2962 -25.8716 289° West 417 480 34,000  Level FlightAware Transoceanic
09:03AM 57.3346 -26.0742 289° West 417 480 34,000  Level FlightAware Transoceanic
09:04AM 57.3726 -26.2771 289° West 417 480 34,000  Level FlightAware Transoceanic
09:05AM 57.4103 -26.4805 289° West 417 480 34,000  Level FlightAware Transoceanic
09:06AM 57.4477 -26.6843 289° West 417 480 34,000  Level FlightAware Transoceanic
09:07AM 57.4847 -26.8885 289° West 417 480 34,000  Level FlightAware Transoceanic
09:08AM 57.5214 -27.0932 288° West 417 480 34,000  Level FlightAware Transoceanic
09:09AM 57.5578 -27.2982 288° West 417 480 34,000  Level FlightAware Transoceanic
09:10AM 57.5938 -27.5037 288° West 417 480 34,000  Level FlightAware Transoceanic
09:11AM 57.6296 -27.7095 288° West 417 480 34,000  Level FlightAware Transoceanic
09:12AM 57.6649 -27.9158 288° West 417 480 34,000  Level FlightAware Transoceanic
09:13AM 57.7000 -28.1224 288° West 417 480 34,000  Level FlightAware Transoceanic
09:14AM 57.7347 -28.3295 287° West 417 480 34,000  Level FlightAware Transoceanic
09:15AM 57.7690 -28.5370 287° West 417 480 34,000  Level FlightAware Transoceanic
09:16AM 57.8031 -28.7448 287° West 417 480 34,000  Level FlightAware Transoceanic
09:17AM 57.8367 -28.9530 287° West 417 480 34,000  Level FlightAware Transoceanic
09:18AM 57.8701 -29.1617 287° West 417 480 34,000  Level FlightAware Transoceanic
09:19AM 57.9031 -29.3707 286° West 417 480 34,000  Level FlightAware Transoceanic
09:20AM 57.9357 -29.5801 286° West 417 480 34,000  Level FlightAware Transoceanic
09:21AM 57.9680 -29.7899 286° West 417 480 34,000  Level FlightAware Transoceanic
09:22AM 57.9996 -29.9974 286° West  Level FlightAware Approximate
09:23AM 58.0312 -30.2052 286° West  Level FlightAware Approximate
09:24AM 58.0280 -30.2041 285° West  Level FlightAware Approximate
09:24AM 58.0000 -30.0000 285° West 390 449 34,000  Level ETMS Enhanced Traffic Management System
09:25AM 58.0563 -30.4137 284° West  Level FlightAware Approximate
09:26AM 58.0843 -30.6236 284° West  Level FlightAware Approximate
09:27AM 58.1120 -30.8339 284° West  Level FlightAware Approximate
09:28AM 58.1393 -31.0445 284° West  Level FlightAware Approximate
09:29AM 58.1662 -31.2553 284° West  Level FlightAware Approximate
09:30AM 58.2158 -31.5908 284° West 390 449 34,000  Level FlightAware Transoceanic
09:31AM 58.2413 -31.7910 284° West 390 449 34,000  Level FlightAware Transoceanic
09:32AM 58.2666 -31.9914 283° West 390 449 34,000  Level FlightAware Transoceanic
09:33AM 58.2916 -32.1922 283° West 390 449 34,000  Level FlightAware Transoceanic
09:34AM 58.3162 -32.3932 283° West 390 449 34,000  Level FlightAware Transoceanic
09:35AM 58.3405 -32.5945 283° West 390 449 34,000  Level FlightAware Transoceanic
09:36AM 58.3645 -32.7961 283° West 390 449 34,000  Level FlightAware Transoceanic
09:37AM 58.3882 -32.9980 283° West 390 449 34,000  Level FlightAware Transoceanic
09:38AM 58.4115 -33.2001 282° West 390 449 34,000  Level FlightAware Transoceanic
09:39AM 58.4346 -33.4025 282° West 390 449 34,000  Level FlightAware Transoceanic
09:40AM 58.4573 -33.6051 282° West 390 449 34,000  Level FlightAware Transoceanic
09:41AM 58.4797 -33.8080 282° West 390 449 34,000  Level FlightAware Transoceanic
09:42AM 58.5018 -34.0112 282° West 390 449 34,000  Level FlightAware Transoceanic
09:43AM 58.5236 -34.2147 281° West 390 449 34,000  Level FlightAware Transoceanic
09:44AM 58.5450 -34.4183 281° West 390 449 34,000  Level FlightAware Transoceanic
09:45AM 58.5661 -34.6223 281° West 390 449 34,000  Level FlightAware Transoceanic
09:46AM 58.5869 -34.8264 281° West 390 449 34,000  Level FlightAware Transoceanic
09:47AM 58.6074 -35.0308 281° West 390 449 34,000  Level FlightAware Transoceanic
09:48AM 58.6276 -35.2355 281° West 390 449 34,000  Level FlightAware Transoceanic
09:49AM 58.6474 -35.4404 280° West 390 449 34,000  Level FlightAware Transoceanic
09:50AM 58.6669 -35.6455 280° West 390 449 34,000  Level FlightAware Transoceanic
09:51AM 58.6860 -35.8508 280° West 390 449 34,000  Level FlightAware Transoceanic
09:52AM 58.7049 -36.0564 280° West 390 449 34,000  Level FlightAware Transoceanic
09:53AM 58.7234 -36.2622 280° West 390 449 34,000  Level FlightAware Transoceanic
09:54AM 58.7416 -36.4682 280° West 390 449 34,000  Level FlightAware Transoceanic
09:55AM 58.7594 -36.6744 279° West 390 449 34,000  Level FlightAware Transoceanic
09:56AM 58.7770 -36.8809 279° West 390 449 34,000  Level FlightAware Transoceanic
09:57AM 58.7942 -37.0875 279° West 390 449 34,000  Level FlightAware Transoceanic
09:58AM 58.8110 -37.2943 279° West 390 449 34,000  Level FlightAware Transoceanic
09:59AM 58.8276 -37.5014 279° West 390 449 34,000  Level FlightAware Transoceanic
10:00AM 58.8438 -37.7086 279° West 390 449 34,000  Level FlightAware Transoceanic
10:01AM 58.8596 -37.9160 278° West 390 449 34,000  Level FlightAware Transoceanic
10:02AM 58.8752 -38.1236 278° West 390 449 34,000  Level FlightAware Transoceanic
10:03AM 58.8904 -38.3314 278° West 390 449 34,000  Level FlightAware Transoceanic
10:04AM 58.9053 -38.5394 278° West 390 449 34,000  Level FlightAware Transoceanic
10:05AM 58.9198 -38.7476 278° West 390 449 34,000  Level FlightAware Transoceanic
10:06AM 58.9340 -38.9559 277° West 390 449 34,000  Level FlightAware Transoceanic
10:07AM 58.9479 -39.1644 277° West 390 449 34,000  Level FlightAware Transoceanic
10:08AM 58.9614 -39.3731 277° West 390 449 34,000  Level FlightAware Transoceanic
10:09AM 58.9746 -39.5819 277° West 390 449 34,000  Level FlightAware Transoceanic
10:10AM 58.9875 -39.7909 277° West 390 449 34,000  Level FlightAware Transoceanic
10:11AM 59.0007 -40.0117 277° West  Level FlightAware Approximate
10:11AM 59.0000 -40.0000 263° West 407 468 34,000  Level ETMS Enhanced Traffic Management System
10:12AM 58.9986 -40.0233 263° West  Level FlightAware Approximate
10:13AM 58.9854 -40.2441 263° West  Level FlightAware Approximate
10:14AM 58.9717 -40.4646 263° West  Level FlightAware Approximate
10:15AM 58.9577 -40.6851 263° West  Level FlightAware Approximate
10:16AM 58.9433 -40.9053 263° West  Level FlightAware Approximate
10:17AM 58.8853 -41.7393 262° West 407 468 34,000  Level FlightAware Transoceanic
10:18AM 58.8693 -41.9559 262° West 407 468 34,000  Level FlightAware Transoceanic
10:19AM 58.8529 -42.1723 262° West 407 468 34,000  Level FlightAware Transoceanic
10:20AM 58.8362 -42.3884 261° West 407 468 34,000  Level FlightAware Transoceanic
10:21AM 58.8192 -42.6044 261° West 407 468 34,000  Level FlightAware Transoceanic
10:22AM 58.8018 -42.8201 261° West 407 468 34,000  Level FlightAware Transoceanic
10:23AM 58.7840 -43.0356 261° West 407 468 34,000  Level FlightAware Transoceanic
10:24AM 58.7658 -43.2509 261° West 407 468 34,000  Level FlightAware Transoceanic
10:25AM 58.7473 -43.4660 260° West 407 468 34,000  Level FlightAware Transoceanic
10:26AM 58.7285 -43.6808 260° West 407 468 34,000  Level FlightAware Transoceanic
10:27AM 58.7093 -43.8955 260° West 407 468 34,000  Level FlightAware Transoceanic
10:28AM 58.6897 -44.1098 260° West 407 468 34,000  Level FlightAware Transoceanic
10:29AM 58.6698 -44.3239 260° West 407 468 34,000  Level FlightAware Transoceanic
10:30AM 58.6495 -44.5378 260° West 407 468 34,000  Level FlightAware Transoceanic
10:31AM 58.6288 -44.7514 259° West 407 468 34,000  Level FlightAware Transoceanic
10:32AM 58.6078 -44.9648 259° West 407 468 34,000  Level FlightAware Transoceanic
10:33AM 58.5865 -45.1779 259° West 407 468 34,000  Level FlightAware Transoceanic
10:34AM 58.5648 -45.3908 259° West 407 468 34,000  Level FlightAware Transoceanic
10:35AM 58.5428 -45.6033 259° West 407 468 34,000  Level FlightAware Transoceanic
10:36AM 58.5204 -45.8157 258° West 407 468 34,000  Level FlightAware Transoceanic
10:37AM 58.4976 -46.0277 258° West 407 468 34,000  Level FlightAware Transoceanic
10:38AM 58.4745 -46.2395 258° West 407 468 34,000  Level FlightAware Transoceanic
10:39AM 58.4511 -46.4510 258° West 407 468 34,000  Level FlightAware Transoceanic
10:40AM 58.4273 -46.6622 258° West 407 468 34,000  Level FlightAware Transoceanic
10:41AM 58.4031 -46.8731 258° West 407 468 34,000  Level FlightAware Transoceanic
10:42AM 58.3787 -47.0837 257° West 407 468 34,000  Level FlightAware Transoceanic
10:43AM 58.3538 -47.2940 257° West 407 468 34,000  Level FlightAware Transoceanic
10:44AM 58.3287 -47.5040 257° West 407 468 34,000  Level FlightAware Transoceanic
10:45AM 58.3031 -47.7138 257° West 407 468 34,000  Level FlightAware Transoceanic
10:46AM 58.2773 -47.9232 257° West 407 468 34,000  Level FlightAware Transoceanic
10:47AM 58.2511 -48.1323 257° West 407 468 34,000  Level FlightAware Transoceanic
10:48AM 58.2245 -48.3411 256° West 407 468 34,000  Level FlightAware Transoceanic
10:49AM 58.1976 -48.5496 256° West 407 468 34,000  Level FlightAware Transoceanic
10:50AM 58.1704 -48.7578 256° West 407 468 34,000  Level FlightAware Transoceanic
10:51AM 58.1428 -48.9656 256° West 407 468 34,000  Level FlightAware Transoceanic
10:52AM 58.1149 -49.1732 256° West 407 468 34,000  Level FlightAware Transoceanic
10:53AM 58.0867 -49.3804 255° West 407 468 34,000  Level FlightAware Transoceanic
10:54AM 58.0582 -49.5872 255° West 407 468 34,000  Level FlightAware Transoceanic
10:55AM 58.0292 -49.7938 255° West 407 468 34,000  Level FlightAware Transoceanic
10:56AM 57.9996 -50.0026 255° West  Level FlightAware Approximate
10:57AM 57.9990 -50.0050 250° West  Level FlightAware Approximate
10:58AM 58.0000 -50.0000 252° West 422 486 34,000  Level ETMS Enhanced Traffic Management System
10:58AM 57.9595 -50.2077 250° West  Level FlightAware Approximate
10:59AM 57.9184 -50.4161 250° West  Level FlightAware Approximate
11:00AM 57.8769 -50.6241 250° West  Level FlightAware Approximate
11:01AM 57.8351 -50.8316 249° West  Level FlightAware Approximate
11:02AM 57.7930 -51.0387 249° West  Level FlightAware Approximate
11:03AM 57.7505 -51.2452 249° West  Level FlightAware Approximate
11:04AM 57.6670 -51.8782 251° West 422 486 34,000  Level FlightAware Transoceanic
11:05AM 57.6283 -52.0847 251° West 422 486 34,000  Level FlightAware Transoceanic
11:06AM 57.5893 -52.2908 250° West 422 486 34,000  Level FlightAware Transoceanic
11:07AM 57.5499 -52.4964 250° West 422 486 34,000  Level FlightAware Transoceanic
11:08AM 57.5102 -52.7016 250° West 422 486 34,000  Level FlightAware Transoceanic
11:09AM 57.4701 -52.9063 250° West 422 486 34,000  Level FlightAware Transoceanic
11:10AM 57.4298 -53.1106 250° West 422 486 34,000  Level FlightAware Transoceanic
11:11AM 57.3891 -53.3145 250° West 422 486 34,000  Level FlightAware Transoceanic
11:12AM 57.3480 -53.5179 249° West 422 486 34,000  Level FlightAware Transoceanic
11:13AM 57.3067 -53.7208 249° West 422 486 34,000  Level FlightAware Transoceanic
11:14AM 57.2650 -53.9233 249° West 422 486 34,000  Level FlightAware Transoceanic
11:15AM 57.2230 -54.1253 249° West 422 486 34,000  Level FlightAware Transoceanic
11:16AM 57.1807 -54.3268 249° West 422 486 34,000  Level FlightAware Transoceanic
11:17AM 57.1380 -54.5279 249° West 422 486 34,000  Level FlightAware Transoceanic
11:18AM 57.0951 -54.7285 248° West 422 486 34,000  Level FlightAware Transoceanic
11:19AM 57.0518 -54.9287 248° West 422 486 34,000  Level FlightAware Transoceanic
11:20AM 57.0081 -55.1284 248° West 422 486 34,000  Level FlightAware Transoceanic
11:21AM 56.9642 -55.3276 248° West 422 486 34,000  Level FlightAware Transoceanic
11:21AM 56.9833 -55.2500 247° West 420 483 34,000  Level Gander Center
11:22AM 56.9200 -55.5264 248° West 422 486 34,000  Level FlightAware Transoceanic
11:22AM 56.9167 -55.4000 231° Southwest 440 506 34,000  Level Gander Center
11:23AM 56.8754 -55.7246 248° West 422 486 34,000  Level FlightAware Transoceanic
11:23AM 56.8500 -55.6000 239° Southwest 440 506 34,000  Level Gander Center
11:24AM 56.8306 -55.9225 247° West 422 486 34,000 600 Level FlightAware Transoceanic
11:24AM 56.7667 -55.8000 233° Southwest 440 506 34,600  Climbing Gander Center
11:25AM 56.7854 -56.1198 247° West 422 486 34,000 1,200 Descending FlightAware Transoceanic
11:25AM 56.7000 -55.9667 234° Southwest 450 518 35,800  Climbing Gander Center
11:26AM 56.7399 -56.3166 247° West 422 486 34,000 180 Descending FlightAware Transoceanic
11:26AM 56.6000 -56.1333 223° Southwest 450 518 36,000 1,320 Climbing Gander Center
11:27AM 56.5167 -56.3167 231° Southwest 450 518 36,000  Level Gander Center
11:28AM 56.4333 -56.5167 233° Southwest 450 518 36,000  Level Gander Center
11:29AM 56.3500 -56.6667 225° Southwest 450 518 36,000  Level Gander Center
11:30AM 56.2667 -56.8333 228° Southwest 450 518 36,000  Level Gander Center
11:31AM 56.1833 -57.0167 231° Southwest 450 518 36,000  Level Gander Center
11:32AM 56.1000 -57.1833 228° Southwest 450 518 36,000  Level Gander Center
11:33AM 56.0000 -57.3333 220° Southwest 450 518 36,000  Level Gander Center
11:34AM 55.9333 -57.5000 235° Southwest 450 518 36,000  Level Gander Center
11:35AM 55.8500 -57.6833 231° Southwest 450 518 36,000  Level Moncton Center
11:36AM 55.7667 -57.8333 225° Southwest 450 518 36,000  Level Moncton Center
11:37AM 55.6833 -58.0000 228° Southwest 450 518 36,000  Level Moncton Center
11:38AM 55.6000 -58.1833 231° Southwest 450 518 36,000  Level Gander Center
11:39AM 55.5167 -58.3333 226° Southwest 450 518 36,000  Level Gander Center
11:40AM 55.4333 -58.4833 226° Southwest 450 518 36,000  Level Gander Center
11:41AM 55.3500 -58.6333 226° Southwest 450 518 36,000  Level Gander Center
11:42AM 55.2667 -58.8167 231° Southwest 450 518 36,000  Level Gander Center
11:43AM 55.1833 -58.9667 226° Southwest 450 518 36,000  Level Gander Center
11:44AM 55.0833 -59.1500 226° Southwest 450 518 36,000  Level Gander Center
11:45AM 55.0000 -59.3000 226° Southwest 450 518 36,000  Level Gander Center
11:46AM 54.9167 -59.4500 226° Southwest 460 529 36,000  Level Gander Center
11:47AM 54.8167 -59.6333 227° Southwest 450 518 36,000  Level Gander Center
11:48AM 54.7333 -59.7833 226° Southwest 460 529 36,000  Level Gander Center
11:49AM 54.6667 -59.9167 229° Southwest 460 529 36,000  Level Gander Center
11:50AM 54.5667 -60.1000 227° Southwest 460 529 36,000  Level Gander Center
11:51AM 54.4833 -60.2500 226° Southwest 460 529 36,000  Level Gander Center
11:52AM 54.4000 -60.4000 226° Southwest 460 529 36,000  Level Gander Center
11:53AM 54.3000 -60.5667 224° Southwest 460 529 36,000  Level Gander Center
11:54AM 54.2167 -60.7167 226° Southwest 460 529 36,000  Level Gander Center
11:55AM 54.1167 -60.8833 224° Southwest 460 529 36,000  Level Gander Center
11:56AM 54.0333 -61.0333 227° Southwest 450 518 36,000  Level Gander Center
11:57AM 53.9500 -61.1667 223° Southwest 450 518 36,000  Level Gander Center
11:58AM 53.8500 -61.3333 225° Southwest 450 518 36,000  Level Gander Center
11:59AM 53.7667 -61.4833 227° Southwest 450 518 36,000  Level Gander Center
12:00PM 53.6833 -61.6167 223° Southwest 450 518 36,000  Level Gander Center
12:01PM 53.6000 -61.7667 227° Southwest 450 518 36,000  Level Gander Center
12:02PM 53.5000 -61.9333 225° Southwest 450 518 36,000  Level Gander Center
12:03PM 53.4167 -62.0667 224° Southwest 450 518 36,000  Level Gander Center
12:04PM 53.3167 -62.2333 225° Southwest 450 518 36,000  Level Gander Center
12:05PM 53.2167 -62.3667 219° Southwest 450 518 36,000  Level Gander Center
12:06PM 53.1333 -62.5167 227° Southwest 450 518 36,000  Level Gander Center
12:07PM 53.0500 -62.6500 224° Southwest 450 518 36,000  Level Gander Center
12:08PM 52.9500 -62.8167 225° Southwest 450 518 36,000  Level Gander Center
12:09PM 52.8667 -62.9500 224° Southwest 450 518 36,000  Level Gander Center
12:10PM 52.7833 -63.0833 224° Southwest 450 518 36,000  Level Gander Center
12:11PM 52.6833 -63.2333 222° Southwest 450 518 36,000  Level Gander Center
12:12PM 52.6000 -63.3667 224° Southwest 460 529 36,000  Level Gander Center
12:13PM 52.4833 -63.5333 221° Southwest 460 529 36,000  Level Gander Center
12:14PM 52.4000 -63.6667 224° Southwest 460 529 36,000  Level Gander Center
12:15PM 52.3167 -63.8000 224° Southwest 460 529 36,000  Level Gander Center
12:16PM 52.2167 -63.9500 223° Southwest 460 529 36,000  Level Gander Center
12:17PM 52.1333 -64.0833 225° Southwest 460 529 36,000  Level Gander Center
12:18PM 52.0333 -64.2500 226° Southwest 460 529 36,000  Level Gander Center
12:19PM 51.9333 -64.3667 216° Southwest 460 529 36,000  Level Gander Center
12:20PM 51.8500 -64.5000 225° Southwest 460 529 36,000  Level Gander Center
12:21PM 51.7500 -64.6667 226° Southwest 460 529 36,000  Level Gander Center
12:22PM 51.6500 -64.7833 216° Southwest 460 529 36,000  Level Gander Center
12:23PM 51.5667 -64.9167 225° Southwest 460 529 36,000  Level Gander Center
12:24PM 51.4667 -65.0667 223° Southwest 460 529 36,000  Level Gander Center
12:25PM 51.3667 -65.2000 220° Southwest 460 529 36,000  Level Gander Center
12:26PM 51.2833 -65.3167 221° Southwest 460 529 36,000  Level Gander Center
12:27PM 51.1833 -65.4667 223° Southwest 460 529 36,000  Level Gander Center
12:28PM 51.1000 -65.6000 225° Southwest 460 529 36,000  Level Gander Center
12:29PM 51.0167 -65.6333 194° South 460 529 36,000  Level Montreal Center
12:30PM 50.9167 -65.8000 226° Southwest 460 529 36,000  Level Montreal Center
12:31PM 50.8333 -65.9333 225° Southwest 460 529 36,000  Level Montreal Center
12:32PM 50.7167 -66.0500 212° Southwest 460 529 36,000  Level Montreal Center
12:33PM 50.6333 -66.2167 232° Southwest 470 541 36,000  Level Montreal Center
12:34PM 50.5333 -66.3333 217° Southwest 470 541 36,000  Level Montreal Center
12:35PM 50.4333 -66.4667 220° Southwest 470 541 36,000  Level Montreal Center
12:36PM 50.3333 -66.6167 224° Southwest 470 541 36,000  Level Montreal Center
12:37PM 50.2333 -66.7500 220° Southwest 470 541 36,000  Level Montreal Center
12:38PM 50.1167 -66.9000 220° Southwest 480 552 36,000  Level Montreal Center
12:39PM 50.0167 -67.0500 224° Southwest 470 541 36,000  Level Montreal Center
12:40PM 49.9000 -67.1833 216° Southwest 480 552 36,000  Level Montreal Center
12:41PM 49.8167 -67.3000 222° Southwest 480 552 36,000  Level Montreal Center
12:42PM 49.7000 -67.4500 220° Southwest 480 552 36,000  Level Montreal Center
12:43PM 49.6000 -67.5667 217° Southwest 480 552 36,000  Level Montreal Center
12:44PM 49.4833 -67.7167 220° Southwest 480 552 36,000  Level Montreal Center
12:45PM 49.4000 -67.8500 226° Southwest 480 552 36,000  Level Montreal Center
12:46PM 49.2833 -67.9833 217° Southwest 480 552 36,000  Level Montreal Center
12:47PM 49.1833 -68.1167 221° Southwest 480 552 36,000  Level Montreal Center
12:48PM 49.0667 -68.2333 213° Southwest 480 552 36,000  Level Montreal Center
12:49PM 48.9500 -68.3500 213° Southwest 480 552 36,000  Level Montreal Center
12:50PM 48.8500 -68.4667 218° Southwest 480 552 36,000  Level Montreal Center
12:51PM 48.7333 -68.6000 217° Southwest 480 552 36,000  Level Montreal Center
12:57PM 48.1080 -69.2560 217° Southwest 498 573 36,000  Level FlightAware
12:57PM 48.0240 -69.3390 213° Southwest 499 574 36,000  Level FlightAware
12:58PM 47.9570 -69.4050 213° Southwest 500 575 36,000  Level FlightAware
12:58PM 47.8980 -69.4620 213° Southwest 501 577 36,000  Level FlightAware
12:59PM 47.8210 -69.5380 214° Southwest 501 577 36,000  Level FlightAware
01:00PM 47.7640 -69.5940 213° Southwest 502 578 36,000  Level FlightAware
01:00PM 47.6860 -69.6700 213° Southwest 502 578 36,000  Level FlightAware
01:01PM 47.6200 -69.7370 214° Southwest 502 578 36,000  Level FlightAware
01:01PM 47.5520 -69.8050 214° Southwest 502 578 36,000  Level FlightAware
01:02PM 47.4840 -69.8720 214° Southwest 502 578 36,000  Level FlightAware
01:03PM 47.4080 -69.9480 214° Southwest 503 579 36,000  Level FlightAware
01:03PM 47.3400 -70.0150 214° Southwest 503 579 36,000  Level FlightAware
01:04PM 47.2730 -70.0810 214° Southwest 503 579 36,000  Level FlightAware
01:04PM 47.1960 -70.1570 214° Southwest 503 579 36,000  Level FlightAware
01:05PM 47.1380 -70.2130 213° Southwest 503 579 36,000  Level FlightAware
01:06PM 47.0710 -70.2790 214° Southwest 503 579 36,000  Level FlightAware
01:06PM 46.9930 -70.3540 213° Southwest 504 580 36,000  Level FlightAware
01:07PM 46.9160 -70.4290 214° Southwest 503 579 36,000  Level FlightAware
01:07PM 46.8480 -70.4940 213° Southwest 503 579 36,000  Level FlightAware
01:08PM 46.7800 -70.5600 214° Southwest 503 579 36,000  Level FlightAware
01:09PM 46.7230 -70.6150 213° Southwest 503 579 36,000  Level FlightAware
01:09PM 46.6440 -70.6900 213° Southwest 503 579 36,000  Level FlightAware
01:10PM 46.5860 -70.7450 213° Southwest 503 579 36,000  Level FlightAware
01:10PM 46.5090 -70.8180 213° Southwest 504 580 36,000  Level FlightAware
01:11PM 46.4610 -70.8640 213° Southwest 504 580 36,000  Level FlightAware
01:12PM 46.3740 -70.9460 213° Southwest 504 580 36,000  Level FlightAware
01:12PM 46.3150 -71.0020 213° Southwest 503 579 36,000  Level FlightAware
01:13PM 46.2380 -71.0750 213° Southwest 503 579 36,000  Level FlightAware
01:13PM 46.1690 -71.1390 213° Southwest 504 580 36,000  Level FlightAware
01:14PM 46.1110 -71.1930 213° Southwest 505 581 36,000  Level FlightAware
01:14PM 46.0420 -71.2570 213° Southwest 506 582 36,000  Level FlightAware
01:15PM 45.9650 -71.3290 213° Southwest 506 582 36,000  Level FlightAware
01:16PM 45.9050 -71.3840 213° Southwest 507 583 36,000  Level FlightAware
01:16PM 45.8260 -71.4560 212° Southwest 507 583 36,000  Level FlightAware
01:17PM 45.7670 -71.5110 213° Southwest 507 583 36,000  Level FlightAware
01:17PM 45.6990 -71.5730 212° Southwest 508 585 36,000  Level FlightAware
01:18PM 45.6290 -71.6360 212° Southwest 508 585 36,000  Level FlightAware
01:19PM 45.5510 -71.7080 213° Southwest 508 585 36,000  Level FlightAware
01:19PM 45.4910 -71.7620 212° Southwest 508 585 36,000  Level FlightAware
01:20PM 45.4220 -71.8240 212° Southwest 508 585 36,000  Level FlightAware
01:20PM 45.3520 -71.8870 212° Southwest 508 585 36,000  Level FlightAware
01:21PM 45.2730 -71.9570 212° Southwest 508 585 36,000  Level FlightAware
01:21PM 45.2050 -72.0190 213° Southwest 507 583 36,000  Level FlightAware
01:22PM 45.1360 -72.0800 212° Southwest 506 582 36,000  Level FlightAware
01:23PM 45.0760 -72.1330 212° Southwest 506 582 36,000  Level FlightAware
01:23PM 45.0060 -72.1950 212° Southwest 505 581 36,000  Level FlightAware
01:24PM 44.9290 -72.2630 212° Southwest 504 580 36,000  Level FlightAware
01:24PM 44.8840 -72.3020 212° Southwest 503 579 36,000  Level FlightAware
01:25PM 44.8070 -72.3700 212° Southwest 500 575 36,000  Level FlightAware
01:25PM 44.7340 -72.4340 212° Southwest 500 575 36,000  Level FlightAware
01:26PM 44.6770 -72.4800 210° Southwest 502 578 36,000  Level FlightAware
01:27PM 44.6040 -72.5380 210° Southwest 503 579 36,000  Level FlightAware
01:27PM 44.5430 -72.5870 210° Southwest 503 579 36,000  Level FlightAware
01:28PM 44.4710 -72.6450 210° Southwest 503 579 36,000  Level FlightAware
01:28PM 44.3970 -72.7040 210° Southwest 501 577 36,000  Level FlightAware
01:29PM 44.3290 -72.7590 210° Southwest 500 575 36,000  Level FlightAware
01:29PM 44.2440 -72.8270 210° Southwest 498 573 36,000  Level FlightAware
01:30PM 44.1720 -72.8840 210° Southwest 498 573 36,000  Level FlightAware
01:31PM 44.1000 -72.9410 210° Southwest 498 573 36,000  Level FlightAware
01:31PM 44.0540 -72.9770 209° Southwest 498 573 36,000  Level FlightAware
01:32PM 43.9800 -73.0360 210° Southwest 497 572 36,000  Level FlightAware
01:32PM 43.9190 -73.0840 210° Southwest 496 571 36,000  Level FlightAware
01:33PM 43.8360 -73.1480 209° Southwest 496 571 36,000  Level FlightAware
01:33PM 43.7710 -73.1990 210° Southwest 494 568 36,000  Level FlightAware
01:34PM 43.6990 -73.2550 209° Southwest 494 568 36,000 -360 Level FlightAware
01:35PM 43.6240 -73.3130 209° Southwest 495 570 35,600 -1,680 Descending FlightAware
01:35PM 43.5600 -73.3630 210° Southwest 498 573 34,100 -1,440 Descending FlightAware
01:36PM 43.5080 -73.4020 209° Southwest 498 573 34,000 -120 Descending FlightAware
01:36PM 43.4480 -73.4480 209° Southwest 498 573 34,000  Level FlightAware
01:37PM 43.3860 -73.4950 209° Southwest 498 573 34,000 -5,100 Level FlightAware
01:38PM 43.2500 -73.6000 209° Southwest 501 577 26,300 -5,040 Descending FlightAware
01:38PM 43.1860 -73.6480 209° Southwest 501 577 26,300  Level FlightAware
01:39PM 43.1230 -73.6970 210° Southwest 501 577 26,300  Level FlightAware
01:40PM 43.0620 -73.7430 209° Southwest 501 577 26,300  Level FlightAware
01:40PM 43.0000 -73.7900 209° Southwest 501 577 26,300  Level FlightAware
01:41PM 42.9210 -73.8500 209° Southwest 501 577 26,300 -2,580 Level FlightAware
01:41PM 42.7940 -73.8060 166° South 15,900 -3,120 Descending FlightAware
01:44PM 42.4190 -73.9690 198° South 456 525 15,900  Level FlightAware
01:45PM 42.3500 -73.9980 197° South 456 525 15,900  Level FlightAware
01:46PM 42.2880 -74.0240 197° South 456 525 15,900  Level FlightAware
01:46PM 42.1740 -74.0750 198° South 454 522 15,900  Level FlightAware
01:47PM 42.1040 -74.1050 198° South 455 524 15,900 -120 Level FlightAware
01:48PM 42.0290 -74.1380 198° South 455 524 15,800 -1,140 Descending FlightAware
01:48PM 41.9660 -74.1650 198° South 444 511 14,600 -2,460 Descending FlightAware
01:49PM 41.9030 -74.1920 198° South 432 497 13,200 -2,640 Descending FlightAware
01:49PM 41.8300 -74.2230 198° South 423 487 11,500 -2,040 Descending FlightAware
01:50PM 41.7690 -74.2490 198° South 411 473 10,800 -1,380 Descending FlightAware
01:50PM 41.7070 -74.2750 197° South 393 452 10,000 -720 Descending FlightAware
01:51PM 41.6550 -74.2970 198° South 351 404 10,000  Level FlightAware
01:52PM 41.5950 -74.3220 197° South 306 352 10,000 -240 Level FlightAware
01:52PM 41.5740 -74.3310 198° South 299 344 9,800 -1,200 Descending FlightAware
01:52PM 41.5400 -74.3450 197° South 298 343 9,200 -1,260 Descending FlightAware
01:53PM 41.5200 -74.3540 199° South 297 342 8,900 -1,440 Descending FlightAware
01:53PM 41.4860 -74.3670 196° South 295 339 8,200 -1,500 Descending FlightAware
01:53PM 41.4600 -74.3790 199° South 295 339 7,800 -1,500 Descending FlightAware
01:54PM 41.4230 -74.3940 197° South 294 338 7,000 -1,200 Descending FlightAware
01:54PM 41.3970 -74.4050 198° South 291 335 6,900 -180 Descending FlightAware
01:55PM 41.3730 -74.4150 197° South 292 336 6,900  Level FlightAware
01:55PM 41.3450 -74.4260 196° South 290 334 6,900  Level FlightAware
01:55PM 41.3060 -74.4430 198° South 283 326 6,900  Level FlightAware
01:56PM 41.2870 -74.4500 195° South 269 310 6,900  Level FlightAware
01:56PM 41.2640 -74.4600 198° South 253 291 6,900  Level FlightAware
01:56PM 41.2460 -74.4670 196° South 247 284 6,900  Level FlightAware
01:57PM 41.2240 -74.4760 197° South 249 287 6,900 -180 Level FlightAware
01:57PM 41.2040 -74.4840 197° South 246 283 6,800 -780 Descending FlightAware
01:57PM 41.1800 -74.4940 197° South 243 280 6,400 -1,020 Descending FlightAware
01:58PM 41.1580 -74.5030 197° South 241 277 6,100 -780 Descending FlightAware
01:58PM 41.1360 -74.5130 199° South 241 277 5,900 -360 Descending FlightAware
01:58PM 41.1170 -74.5200 196° South 245 282 5,900  Level FlightAware
01:59PM 41.0871 -74.5327 198° South 245 282 5,900  Level FlightAware ADS-B
01:59PM 41.0360 -74.5390 185° South 249 287 5,900  Level FlightAware
02:00PM 41.0150 -74.5380 178° South 245 282 5,900  Level FlightAware
02:00PM 40.9950 -74.5370 178° South 246 283 5,900  Level FlightAware
02:01PM 40.9530 -74.5440 187° South 246 283 5,900  Level FlightAware
02:01PM 40.9340 -74.5520 198° South 248 285 5,900  Level FlightAware
02:01PM 40.9145 -74.5593 196° South 246 283 5,900  Level FlightAware ADS-B
02:02PM 40.8800 -74.5630 185° South 248 285 5,900  Level FlightAware
02:02PM 40.8540 -74.5620 178° South 245 282 5,900  Level FlightAware
02:02PM 40.8442 -74.5620 180° South 244 281 5,900 -540 Level FlightAware ADS-B
02:03PM 40.8269 -74.5615 179° South 243 280 5,700 -840 Descending FlightAware ADS-B
02:03PM 40.8035 -74.5606 178° South 243 280 5,400 -960 Descending FlightAware ADS-B
02:03PM 40.7690 -74.5590 178° South 241 277 4,900 -600 Descending FlightAware
02:04PM 40.7443 -74.5580 178° South 239 275 4,900  Level FlightAware ADS-B
02:04PM 40.7052 -74.5563 178° South 243 280 4,900  Level FlightAware ADS-B
02:05PM 40.6590 -74.5570 181° South 242 278 4,900  Level FlightAware
02:05PM 40.6390 -74.5640 195° South 243 280 4,900  Level FlightAware
02:06PM 40.6200 -74.5750 204° Southwest 243 280 4,900  Level FlightAware
02:06PM 40.6000 -74.5890 208° Southwest 244 281 4,900  Level FlightAware
02:06PM 40.5770 -74.6040 206° Southwest 245 282 4,900  Level FlightAware
02:07PM 40.5570 -74.6140 201° Southwest 234 269 4,900 120 Level FlightAware
02:07PM 40.5390 -74.6210 196° South 228 262 5,000  Climbing FlightAware
02:07PM 40.5170 -74.6300 197° South 226 260 4,900 -180 Descending FlightAware
02:08PM 40.5000 -74.6340 190° South 223 257 4,900 180 Level FlightAware
02:08PM 40.4900 -74.6310 167° South 219 252 5,000 300 Climbing FlightAware
02:08PM 40.4800 -74.6260 159° South 219 252 5,000 -240 Level FlightAware
02:08PM 40.4630 -74.6130 150° Southeast 220 253 4,900 -180 Descending FlightAware
02:09PM 40.4440 -74.5970 147° Southeast 216 249 4,900 -480 Level FlightAware
02:09PM 40.4300 -74.5790 136° Southeast 214 246 4,600 -900 Descending FlightAware
02:09PM 40.4210 -74.5660 132° Southeast 213 245 4,400 -1,140 Descending FlightAware
02:10PM 40.4080 -74.5480 133° Southeast 211 243 4,000 -660 Descending FlightAware
02:10PM 40.3910 -74.5210 130° Southeast 204 235 3,900 -420 Descending FlightAware
02:10PM 40.3840 -74.5020 116° Southeast 198 228 3,700 -780 Descending FlightAware
02:11PM 40.3770 -74.4780 111° Southeast 195 224 3,400 -960 Descending FlightAware
02:11PM 40.3760 -74.4740 108° East 194 223 3,300 -1,020 Descending FlightAware
02:11PM 40.3770 -74.4530 86° East 189 217 3,000 -420 Descending FlightAware
02:12PM 40.3830 -74.4060 80° East 171 197 2,900 -120 Descending FlightAware
02:12PM 40.3870 -74.3880 74° East 171 197 2,900 180 Level FlightAware
02:12PM 40.3910 -74.3770 64° Northeast 171 197 3,000  Climbing FlightAware
02:13PM 40.4000 -74.3580 58° Northeast 171 197 2,900 -180 Descending FlightAware
02:13PM 40.4080 -74.3450 51° Northeast 171 197 2,900  Level FlightAware
02:13PM 40.4214 -74.3328 35° Northeast 167 192 2,900  Level FlightAware ADS-B
02:14PM 40.4436 -74.3181 27° Northeast 167 192 2,900  Level FlightAware ADS-B
02:14PM 40.4527 -74.3128 24° Northeast 170 196 2,900  Level FlightAware ADS-B
02:15PM 40.4839 -74.2935 25° Northeast 169 194 2,900  Level FlightAware ADS-B
02:15PM 40.5070 -74.2790 26° Northeast 168 193 2,900  Level FlightAware
02:16PM 40.5213 -74.2705 24° Northeast 170 196 2,900  Level FlightAware ADS-B
02:16PM 40.5321 -74.2636 26° Northeast 170 196 2,900  Level FlightAware ADS-B
02:16PM 40.5431 -74.2568 25° Northeast 176 203 2,900 -540 Level FlightAware ADS-B
02:16PM 40.5565 -74.2484 25° Northeast 173 199 2,600 -1,020 Descending FlightAware ADS-B
02:17PM 40.5775 -74.2355 25° Northeast 170 196 2,100 -960 Descending FlightAware ADS-B
02:17PM 40.5887 -74.2284 26° Northeast 169 194 1,900 -840 Descending FlightAware ADS-B
02:17PM 40.6030 -74.2194 26° Northeast 157 181 1,600 -900 Descending FlightAware ADS-B
02:18PM 40.6160 -74.2115 25° Northeast 157 181 1,300 -840 Descending FlightAware ADS-B
02:18PM 40.6252 -74.2056 26° Northeast 131 151 1,100 -720 Descending FlightAware ADS-B
02:18PM 40.6346 -74.1998 25° Northeast 128 147 900 -720 Descending FlightAware ADS-B
02:19PM 40.6494 -74.1909 25° Northeast 128 147 600 -720 Descending FlightAware ADS-B
02:19PM 40.6580 -74.1856 25° Northeast 128 147 400 -600 Descending FlightAware ADS-B
02:19PM 40.6661 -74.1805 26° Northeast 127 146 300 -480 Descending FlightAware ADS-B
02:20PM 40.6712 -74.1775 24° Northeast 127 146 200 -600 Descending FlightAware ADS-B